This is the latest recevied weather packets stored in our database for station/object E22ZMG-1. If no packets are shown the sender has not sent any weather packets the latest 10 day(s).
| Time | Temp. | Humidity | Pressure | Rain* | Wind** | Luminosity | Snow |
|---|---|---|---|---|---|---|---|
| 1778231680 | 41.11° C | 32% | 971 hPa | - | - | 0 W/m² | - |
| 1778231055 | 41.67° C | 33% | 971 hPa | - | - | 0 W/m² | - |
| 1778230430 | 41.67° C | 33% | 971 hPa | - | - | 0 W/m² | - |
| 1778229804 | 40.56° C | 34% | 971 hPa | - | - | 0 W/m² | - |
| 1778229179 | 41.67° C | 32% | 971 hPa | - | - | 0 W/m² | - |
| 1778228555 | 41.11° C | 33% | 972 hPa | - | - | 0 W/m² | - |
| 1778227930 | 41.67° C | 32% | 972 hPa | - | - | 0 W/m² | - |
| 1778227305 | 41.11° C | 33% | 972 hPa | - | - | 0 W/m² | - |
| 1778226679 | 40.56° C | 33% | 972 hPa | - | - | 0 W/m² | - |
| 1778226054 | 41.11° C | 32% | 972 hPa | - | - | 0 W/m² | - |
| 1778225428 | 41.11° C | 33% | 972 hPa | - | - | 0 W/m² | - |
| 1778224803 | 41.11° C | 33% | 973 hPa | - | - | 0 W/m² | - |
| 1778224177 | 40.56° C | 33% | 973 hPa | - | - | 0 W/m² | - |
| 1778223551 | 39.44° C | 36% | 973 hPa | - | - | 0 W/m² | - |
| 1778222924 | 40° C | 36% | 974 hPa | - | - | 0 W/m² | - |
| 1778222298 | 39.44° C | 38% | 974 hPa | - | - | 0 W/m² | - |
| 1778221672 | 37.78° C | 41% | 974 hPa | - | - | 0 W/m² | - |
| 1778221047 | 38.33° C | 42% | 974 hPa | - | - | 0 W/m² | - |
| 1778220422 | 37.22° C | 43% | 975 hPa | - | - | 0 W/m² | - |
| 1778219797 | 37.78° C | 44% | 975 hPa | - | - | 0 W/m² | - |
| 1778219172 | 37.78° C | 46% | 975 hPa | - | - | 0 W/m² | - |
| 1778218546 | 37.22° C | 47% | 975 hPa | - | - | 0 W/m² | - |
| 1778217920 | 36.11° C | 49% | 976 hPa | - | - | 0 W/m² | - |
| 1778217294 | 36.11° C | 50% | 976 hPa | - | - | 0 W/m² | - |
| 1778216670 | 35° C | 52% | 976 hPa | - | - | 0 W/m² | - |
* Rain since midnight (hover to see other rain measurements)
** Current wind speed in m/s (hover to see current wind gust speed)